sim
Sign-in with your pilot id or email,
or register
Callsign
Passwort

Schedule Details

Flight Number: OEO5874
Departure: La Palma Airport (GCLA) at 16:20
Arrival: Munich Airport (EDDM) at 21:05

Weather Information
Getting current METAR information for GCLA 261830Z 01012KT 9999 BKN026 25/20 Q1021
Getting current METAR information for EDDM 261820Z 24020G32KT 9999 -RA OVC023 07/04 Q1001 NOSIG

Schedule Frequency

Route Map